Data for 10/06/2014

Time Sea-Level Adjusted Pressure Absolute Pressure Temperature Relative Humidity Dew Point   
(mb) (inHg) (mb) (inHg) (C) (F) (%) (C) (F)
00:05 1019 30.09 848 25.04 12 53.6 45 0.4 32.7
00:10 1019 30.09 848 25.04 11.9 53.4 44 0.1 32.1
00:15 1019 30.09 848 25.04 12 53.6 43 -0.2 31.6
00:20 1019 30.09 848 25.04 12.1 53.7 45 0.6 33.1
00:25 1019 30.09 848 25.04 11.5 52.6 47 0.6 33.1
00:30 1019 30.09 848 25.04 11 51.7 49 0.7 33.2
00:35 1019 30.09 848 25.04 10.5 50.8 52 1 33.8
00:40 1019 30.09 848 25.04 10.1 50.1 51 0.3 32.6
00:45 1019 30.09 848 25.04 10.1 50.2 50 0.2 32.4
00:50 1019 30.09 848 25.04 10.3 50.6 49 0 32
00:55 1019 30.09 848 25.04 10.5 50.9 49 0.2 32.3
01:00 1019 30.09 848 25.04 10.7 51.2 47 -0.1 31.8
01:05 1019 30.09 848 25.04 11.3 52.3 45 -0.3 31.5
01:10 1019 30.09 848 25.04 11.9 53.3 43 -0.3 31.4
01:15 1019 30.09 848 25.04 11.8 53.2 45 0.2 32.3
01:20 1019 30.09 848 25.04 11.6 52.8 45 0.2 32.3
01:25 1019 30.09 848 25.04 11.4 52.5 45 0 32.1
01:30 1019 30.09 848 25.04 11.4 52.6 45 0.1 32.1
01:35 1019 30.09 848 25.04 11.5 52.7 45 0.1 32.2
01:40 1019 30.09 848 25.04 11.5 52.7 45 0.1 32.1
01:45 1019 30.09 848 25.04 11.4 52.6 46 0.1 32.2
01:50 1019 30.09 848 25.04 11.3 52.4 46 0.2 32.4
01:55 1019 30.09 848 25.04 11.3 52.3 46 -0 31.9
02:00 1019 30.09 848 25.04 11.3 52.3 46 0.3 32.5
02:05 1019 30.09 848 25.04 11 51.8 47 0.1 32.2
02:10 1019 30.09 848 25.04 11 51.8 47 0.3 32.5
02:15 1018 30.06 848 25.04 10.9 51.5 47 0.1 32.2
02:20 1018 30.06 848 25.04 10.7 51.3 48 0.1 32.2
02:25 1018 30.06 848 25.04 10.7 51.3 47 -0.1 31.8
02:30 1018 30.06 848 25.04 10.8 51.5 47 0.1 32.2
02:35 1018 30.06 848 25.04 10.8 51.4 47 -0 31.9
02:40 1018 30.06 847 25.01 10.7 51.3 47 -0 31.9
02:45 1018 30.06 847 25.01 10.6 51.1 48 0.2 32.3
02:50 1018 30.06 847 25.01 10.4 50.7 48 -0 32
02:55 1018 30.06 848 25.04 10.4 50.8 48 -0.1 31.9
03:00 1018 30.06 848 25.04 10.5 50.9 48 -0 32
03:05 1019 30.09 848 25.04 10.2 50.4 50 0.3 32.6
03:10 1019 30.09 848 25.04 9.7 49.4 50 -0.1 31.9
03:15 1019 30.09 848 25.04 9.6 49.3 51 -0 32
03:20 1018 30.06 848 25.04 9.6 49.3 51 -0.1 31.8
03:25 1018 30.06 848 25.04 9.8 49.6 49 -0.3 31.5
03:30 1018 30.06 848 25.04 9.9 49.9 49 -0.3 31.5
03:35 1018 30.06 848 25.04 10 50 48 -0.3 31.4
03:40 1018 30.06 848 25.04 10.2 50.3 48 -0.4 31.3
03:45 1018 30.06 848 25.04 9.8 49.7 52 0.4 32.7
03:50 1019 30.09 848 25.04 9.3 48.8 51 -0.2 31.6
03:55 1019 30.09 848 25.04 9.4 48.9 52 0 32
04:00 1019 30.09 848 25.04 9.4 49 52 0 32.1
04:05 1019 30.09 848 25.04 9.2 48.6 53 0.3 32.5
04:10 1018 30.06 848 25.04 9.2 48.6 52 -0.1 31.8
04:15 1018 30.06 848 25.04 9.3 48.7 53 0.2 32.3
04:20 1018 30.06 848 25.04 9.2 48.6 52 0 32
04:25 1019 30.09 848 25.04 9.2 48.6 53 0.2 32.4
04:30 1019 30.09 848 25.04 9 48.3 54 0.2 32.4
04:35 1019 30.09 848 25.04 8.8 47.8 56 0.5 32.8
04:40 1019 30.09 848 25.04 8.6 47.5 54 -0.1 31.9
04:45 1019 30.09 848 25.04 8.8 47.9 55 0.4 32.7
04:50 1018 30.06 848 25.04 8.6 47.5 55 0.2 32.3
04:55 1018 30.06 848 25.04 8.7 47.6 56 0.5 32.9
05:00 1018 30.06 848 25.04 8.5 47.2 56 0.1 32.3
05:05 1018 30.06 848 25.04 8.7 47.6 55 0.2 32.3
05:10 1018 30.06 848 25.04 8.8 47.8 54 0.1 32.1
05:15 1018 30.06 848 25.04 9 48.1 54 0.2 32.3
05:20 1018 30.06 848 25.04 9 48.3 54 0.2 32.3
05:25 1018 30.06 848 25.04 9.1 48.3 54 0.3 32.5
05:30 1018 30.06 848 25.04 9.2 48.5 54 0.5 32.9
05:35 1019 30.09 848 25.04 9.1 48.3 53 0.1 32.1
05:40 1019 30.09 848 25.04 9.1 48.5 55 0.6 33.1
05:45 1019 30.09 848 25.04 9 48.2 53 0 32
05:50 1018 30.06 848 25.04 9.4 48.9 53 0.2 32.3
05:55 1018 30.06 848 25.04 9.5 49.1 52 0.1 32.1
06:00 1018 30.06 848 25.04 9.6 49.3 52 0.3 32.5
06:05 1018 30.06 848 25.04 9.7 49.5 53 0.5 32.9
06:10 1018 30.06 848 25.04 9.5 49.1 51 -0 32
06:15 1018 30.06 848 25.04 9.8 49.7 51 0.2 32.4
06:20 1018 30.06 848 25.04 9.9 49.8 50 -0 32
06:25 1018 30.06 848 25.04 10.1 50.1 51 0.6 33
06:30 1019 30.09 848 25.04 9.8 49.6 52 0.5 33
06:35 1019 30.09 848 25.04 9.6 49.3 54 0.7 33.3
06:40 1019 30.09 848 25.04 9.4 48.8 55 0.9 33.6
06:45 1019 30.09 848 25.04 9.3 48.7 55 0.6 33.1
06:50 1019 30.09 848 25.04 9.6 49.3 53 0.4 32.8
06:55 1019 30.09 848 25.04 10 50 52 0.6 33.1
07:00 1019 30.09 848 25.04 10.4 50.8 50 0.5 32.9
07:05 1019 30.09 848 25.04 10.6 51.1 50 0.8 33.4
07:10 1019 30.09 848 25.04 10.7 51.3 51 1 33.8
07:15 1019 30.09 848 25.04 10.4 50.7 52 1 33.8
07:20 1019 30.09 848 25.04 10.2 50.4 53 1.2 34.1
07:25 1019 30.09 848 25.04 10.2 50.3 53 1.1 33.9
07:30 1019 30.09 848 25.04 10.2 50.4 54 1.3 34.3
07:35 1019 30.09 848 25.04 10.2 50.4 51 0.6 33.1
07:40 1019 30.09 848 25.04 11 51.8 46 -0.1 31.9
07:45 1019 30.09 848 25.04 11.9 53.5 45 0.4 32.8
07:50 1019 30.09 848 25.04 12 53.5 47 1 33.8
07:55 1019 30.09 848 25.04 11.7 53 47 0.8 33.5
08:00 1019 30.09 848 25.04 11.9 53.3 46 0.7 33.2
08:05 1019 30.09 848 25.04 11.9 53.4 46 0.6 33.1
08:10 1019 30.09 848 25.04 12.1 53.7 50 2.2 35.9
08:15 1019 30.09 848 25.04 11.9 53.4 46 0.8 33.4
08:20 1019 30.09 848 25.04 12.3 54.1 48 1.6 35
08:25 1019 30.09 848 25.04 12.2 54 49 2 35.6
08:30 1019 30.09 848 25.04 12.2 53.9 45 0.6 33.2
08:35 1019 30.09 848 25.04 12.8 55 41 0.1 32.1
08:40 1019 30.09 849 25.07 13.3 56 44 1.3 34.4
08:45 1019 30.09 849 25.07 13.6 56.4 42 1 33.7
08:50 1019 30.09 849 25.07 13.9 56.9 41 0.8 33.5
08:55 1019 30.09 849 25.07 14 57.2 40 0.7 33.3
09:00 1019 30.09 849 25.07 14.1 57.4 40 0.7 33.3
09:05 1019 30.09 849 25.07 14.5 58.1 42 1.9 35.4
09:10 1020 30.12 849 25.07 14.5 58.1 39 0.7 33.3
09:15 1020 30.12 849 25.07 14.5 58.1 39 0.8 33.4
09:20 1020 30.12 849 25.07 14.9 58.8 39 1.1 33.9
09:25 1020 30.12 849 25.07 15 58.9 39 1.4 34.5
09:30 1020 30.12 849 25.07 15 58.9 42 2.1 35.8
09:35 1019 30.09 849 25.07 14.9 58.9 41 1.8 35.3
09:40 1020 30.12 849 25.07 15.3 59.5 40 1.8 35.3
09:45 1020 30.12 849 25.07 15.6 60.2 39 2 35.5
09:50 1020 30.12 849 25.07 16 60.8 39 2 35.7
09:55 1020 30.12 849 25.07 15.9 60.6 39 2 35.7
10:00 1020 30.12 849 25.07 16.2 61.2 38 1.8 35.3
10:05 1019 30.09 849 25.07 16.9 62.4 36 1.8 35.3
10:10 1019 30.09 849 25.07 16.9 62.4 36 1.9 35.4
10:15 1019 30.09 849 25.07 17.1 62.8 36 2 35.6
10:20 1019 30.09 849 25.07 17.2 62.9 36 2 35.7
10:25 1019 30.09 848 25.04 17.3 63.2 35 1.9 35.4
10:30 1019 30.09 848 25.04 17.7 63.9 35 2.2 36
10:35 1019 30.09 848 25.04 18.3 64.9 33 2 35.5
10:40 1019 30.09 848 25.04 18.8 65.8 32 2 35.5
10:45 1019 30.09 848 25.04 19.4 66.9 31 1.9 35.3
10:50 1019 30.09 848 25.04 19.7 67.5 30 2 35.6
10:55 1019 30.09 848 25.04 19.6 67.2 30 1.8 35.3
11:00 1019 30.09 848 25.04 20.1 68.3 30 2.4 36.3
11:05 1019 30.09 848 25.04 20.5 68.9 29 2.1 35.8
11:10 1019 30.09 848 25.04 20.5 68.8 29 2.1 35.7
11:15 1018 30.06 848 25.04 20.3 68.6 29 2.1 35.7
11:20 1018 30.06 848 25.04 20.3 68.5 30 2.5 36.5
11:25 1018 30.06 848 25.04 20.2 68.4 30 2.2 35.9
11:30 1018 30.06 847 25.01 20.5 68.8 28 1.4 34.5
11:35 1018 30.06 847 25.01 20.5 68.8 27 1 33.8
11:40 1018 30.06 847 25.01 20.5 68.9 28 1.4 34.5
11:45 1018 30.06 847 25.01 20.5 68.9 27 1.2 34.2
11:50 1018 30.06 847 25.01 20.8 69.4 27 1.5 34.7
11:55 1018 30.06 847 25.01 20.7 69.2 27 1.2 34.1
12:00 1018 30.06 847 25.01 20.8 69.5 27 1.3 34.3
12:05 1018 30.06 847 25.01 21.2 70.1 26 1.1 34
12:10 1018 30.06 847 25.01 21.2 70.2 26 1.3 34.4
12:15 1018 30.06 847 25.01 21.3 70.4 26 1.2 34.1
12:20 1017 30.03 847 25.01 21 69.8 27 1.6 34.8
12:25 1017 30.03 847 25.01 21.2 70.1 27 1.5 34.6
12:30 1018 30.06 847 25.01 21.3 70.4 27 1.6 35
12:35 1017 30.03 847 25.01 21.4 70.6 26 1.3 34.3
12:40 1017 30.03 847 25.01 21.3 70.4 26 1.4 34.6
12:45 1017 30.03 847 25.01 21.6 70.9 27 1.9 35.3
12:50 1017 30.03 846 24.98 21.6 70.8 26 1.4 34.6
12:55 1017 30.03 846 24.98 21.7 71 26 1.6 34.9
13:00 1017 30.03 846 24.98 22 71.6 25 1.3 34.3
13:05 1017 30.03 846 24.98 22.2 71.9 26 1.8 35.3
13:10 1017 30.03 846 24.98 22.5 72.4 25 1.8 35.3
13:15 1017 30.03 846 24.98 22.4 72.3 26 2.2 35.9
13:20 1017 30.03 846 24.98 22.2 72 26 1.9 35.3
13:25 1017 30.03 846 24.98 22.4 72.3 26 2.2 36
13:30 1017 30.03 846 24.98 22.4 72.3 26 2.3 36.1
13:35 1017 30.03 846 24.98 22.5 72.5 25 1.9 35.5
13:40 1017 30.03 846 24.98 22.5 72.5 26 2.4 36.4
13:45 1017 30.03 846 24.98 22.5 72.6 26 2.4 36.4
13:50 1017 30.03 846 24.98 22.8 73 25 2.1 35.9
13:55 1017 30.03 846 24.98 22.8 73 26 2.7 36.9
14:00 1017 30.03 846 24.98 22.8 73.1 25 2.1 35.9
14:05 1017 30.03 846 24.98 23 73.3 25 2.3 36.1
14:10 1017 30.03 846 24.98 22.8 73.1 24 1.5 34.7
14:15 1017 30.03 846 24.98 22.6 72.7 25 1.7 35
14:20 1016 30 846 24.98 22.6 72.7 25 1.9 35.4
14:25 1016 30 846 24.98 22.9 73.2 25 2.2 35.9
14:30 1016 30 846 24.98 23.2 73.7 25 2.4 36.4
14:35 1016 30 845 24.95 23 73.5 25 1.9 35.5
14:40 1016 30 845 24.95 22.9 73.1 26 2.3 36.2
14:45 1016 30 845 24.95 22.7 72.9 25 2.1 35.8
14:50 1016 30 845 24.95 22.8 73 25 2.2 35.9
14:55 1016 30 845 24.95 22.9 73.1 24 1.7 35
15:00 1016 30 845 24.95 22.9 73.2 25 2.1 35.7
15:05 1016 30 845 24.95 22.8 73.1 25 2.1 35.8
15:10 1016 30 845 24.95 22.8 73.1 26 2.3 36.1
15:15 1016 30 845 24.95 22.8 73 26 2.3 36.2
15:20 1016 30 845 24.95 22.9 73.2 25 2.3 36.1
15:25 1016 30 845 24.95 22.8 73 25 2.2 35.9
15:30 1016 30 845 24.95 22.7 72.9 25 2.1 35.7
15:35 1016 30 845 24.95 22.8 73.1 25 2.1 35.7
15:40 1016 30 845 24.95 22.9 73.2 25 2.1 35.7
15:45 1016 30 845 24.95 22.7 72.9 25 2 35.7
15:50 1016 30 845 24.95 22.6 72.7 26 2.3 36.2
15:55 1016 30 845 24.95 22.6 72.7 24 1.4 34.6
16:00 1016 30 845 24.95 22.6 72.8 25 1.9 35.4
16:05 1016 30 845 24.95 22.6 72.8 25 1.8 35.2
16:10 1016 30 845 24.95 22.4 72.4 25 1.6 35
16:15 1016 30 845 24.95 22.5 72.6 25 1.9 35.4
16:20 1016 30 845 24.95 22.6 72.6 25 1.9 35.4
16:25 1016 30 845 24.95 22.6 72.6 25 1.8 35.3
16:30 1016 30 845 24.95 22.6 72.7 25 1.8 35.2
16:35 1016 30 845 24.95 22.6 72.6 25 1.9 35.3
16:40 1016 30 845 24.95 22.5 72.5 26 2 35.6
16:45 1016 30 845 24.95 22.4 72.2 26 1.9 35.5
16:50 1016 30 845 24.95 22.2 72 26 1.9 35.4
16:55 1016 30 845 24.95 22.1 71.7 26 1.8 35.3
17:00 1016 30 845 24.95 22.1 71.7 26 2.1 35.8
17:05 1016 30 845 24.95 22 71.5 27 2.4 36.3
17:10 1016 30 845 24.95 21.8 71.2 28 2.7 36.8
17:15 1016 30 845 24.95 21.6 70.8 29 3 37.5
17:20 1016 30 845 24.95 21.1 70 30 3 37.4
17:25 1016 30 845 24.95 20.9 69.7 29 2.6 36.7
17:30 1016 30 845 24.95 21 69.8 29 2.4 36.3
17:35 1016 30 845 24.95 21 69.8 29 2.5 36.6
17:40 1016 30 845 24.95 20.9 69.6 30 2.7 36.9
17:45 1016 30 845 24.95 20.6 69 30 2.5 36.6
17:50 1016 30 845 24.95 20.4 68.6 30 2.5 36.5
17:55 1016 30 845 24.95 20.2 68.3 31 2.6 36.7
18:00 1016 30 845 24.95 20 68 32 2.8 37
18:05 1016 30 845 24.95 19.7 67.5 32 2.7 36.9
18:10 1016 30 845 24.95 19.5 67.1 32 2.7 36.8
18:15 1016 30 845 24.95 19.4 66.9 33 2.7 36.9
18:20 1016 30 845 24.95 19.3 66.8 33 2.7 36.9
18:25 1016 30 845 24.95 19.2 66.6 33 2.7 36.8
18:30 1016 30 845 24.95 19.2 66.5 33 2.7 36.8
18:35 1016 30 846 24.98 19 66.1 37 4 39.2
18:40 1016 30 846 24.98 17.3 63.1 43 4.8 40.6
18:45 1016 30 846 24.98 16.5 61.8 41 3.4 38.2
18:50 1017 30.03 846 24.98 17.2 62.9 39 3.4 38.1
18:55 1017 30.03 846 24.98 17.4 63.3 37 2.8 37
19:00 1017 30.03 846 24.98 18 64.5 36 2.7 36.9
19:05 1017 30.03 846 24.98 18.1 64.6 35 2.5 36.5
19:10 1017 30.03 846 24.98 18.2 64.8 35 2.7 36.9
19:15 1017 30.03 846 24.98 18.1 64.6 35 2.5 36.4
19:20 1017 30.03 846 24.98 18.1 64.6 36 2.8 37.1
19:25 1017 30.03 846 24.98 17.9 64.3 35 2.2 36
19:30 1017 30.03 846 24.98 18.2 64.7 35 2.7 36.9
19:35 1017 30.03 846 24.98 17.9 64.2 36 2.7 36.9
19:40 1017 30.03 846 24.98 17.7 63.9 37 2.9 37.2
19:45 1017 30.03 846 24.98 17.5 63.6 37 3 37.3
19:50 1017 30.03 846 24.98 17.2 63 38 3 37.4
19:55 1017 30.03 846 24.98 17 62.6 39 3.1 37.6
20:00 1017 30.03 846 24.98 16.8 62.2 40 3.3 37.9
20:05 1017 30.03 847 25.01 16.4 61.5 41 3.2 37.8
20:10 1017 30.03 847 25.01 16.2 61.2 41 3.2 37.7
20:15 1017 30.03 847 25.01 16.1 60.9 42 3.4 38.1
20:20 1017 30.03 847 25.01 15.8 60.4 43 3.4 38.1
20:25 1017 30.03 847 25.01 15.7 60.2 43 3.3 38
20:30 1017 30.03 847 25.01 15.7 60.2 43 3.3 37.9
20:35 1018 30.06 847 25.01 15.7 60.2 43 3.4 38
20:40 1018 30.06 847 25.01 15.7 60.2 44 3.6 38.4
20:45 1018 30.06 847 25.01 15.1 59.3 47 4.1 39.4
20:50 1018 30.06 847 25.01 14.5 58 51 4.6 40.3
20:55 1018 30.06 847 25.01 14.5 58.1 48 3.8 38.9
21:00 1018 30.06 847 25.01 14.7 58.4 47 3.6 38.5
21:05 1018 30.06 847 25.01 14.6 58.4 47 3.7 38.6
21:10 1018 30.06 847 25.01 14.6 58.2 47 3.6 38.5
21:15 1018 30.06 847 25.01 14.9 58.7 45 3 37.4
21:20 1018 30.06 847 25.01 15.1 59.1 45 3.4 38.2
21:25 1018 30.06 847 25.01 15.1 59.1 45 3.4 38.1
21:30 1018 30.06 847 25.01 15.2 59.3 45 3.3 37.9
21:35 1018 30.06 847 25.01 15.2 59.4 44 3.1 37.6
21:40 1018 30.06 847 25.01 15.2 59.4 45 3.4 38.2
21:45 1018 30.06 847 25.01 14.8 58.6 47 3.8 38.8
21:50 1018 30.06 847 25.01 13.9 57 51 4.1 39.3
21:55 1018 30.06 847 25.01 13.4 56 52 3.8 38.8
22:00 1018 30.06 847 25.01 13.6 56.4 50 3.4 38.1
22:05 1018 30.06 847 25.01 13.9 57 49 3.4 38.1
22:10 1018 30.06 847 25.01 14.2 57.5 47 3.1 37.6
22:15 1018 30.06 847 25.01 14.7 58.4 45 3 37.3
22:20 1018 30.06 847 25.01 15.1 59.1 44 2.9 37.3
22:25 1018 30.06 847 25.01 15.2 59.3 44 3.1 37.6
22:30 1018 30.06 847 25.01 15 59 45 3.1 37.6
22:35 1018 30.06 847 25.01 14.9 58.7 45 3.2 37.8
22:40 1018 30.06 848 25.04 14.7 58.4 46 3.3 37.9
22:45 1018 30.06 848 25.04 14.4 57.9 48 3.5 38.3
22:50 1018 30.06 847 25.01 14.1 57.4 48 3.5 38.2
22:55 1018 30.06 847 25.01 13.9 57.1 48 3.3 38
23:00 1018 30.06 848 25.04 14 57.2 48 3.3 38
23:05 1018 30.06 848 25.04 14 57.3 49 3.5 38.2
23:10 1018 30.06 848 25.04 14.1 57.3 48 3.3 37.9
23:15 1018 30.06 848 25.04 14.1 57.4 48 3.2 37.8
23:20 1018 30.06 848 25.04 14.3 57.8 47 3.2 37.8
23:25 1018 30.06 848 25.04 14.4 58 46 3.1 37.5
23:30 1018 30.06 848 25.04 14.7 58.4 45 3 37.5
23:35 1018 30.06 848 25.04 14.9 58.8 44 2.8 37.1
23:40 1019 30.09 848 25.04 15.2 59.3 43 2.7 36.9
23:45 1019 30.09 848 25.04 15.3 59.6 43 2.9 37.3
23:50 1019 30.09 848 25.04 15.2 59.4 44 3.1 37.7
23:55 1019 30.09 848 25.04 15.1 59.3 44 3 37.5
24:00 1019 30.09 848 25.04 15.1 59.2 44 3 37.4